sensor_id;sensor_type;location;lat;lon;timestamp;pressure;altitude;pressure_sealevel;temperature;humidity
35307;BME280;21420;52.196;21.416;2024-01-10T00:00:42;102041.44;;;-9.20;61.52
35307;BME280;21420;52.196;21.416;2024-01-10T00:03:09;102034.37;;;-9.20;61.52
35307;BME280;21420;52.196;21.416;2024-01-10T00:05:35;102031.48;;;-9.20;61.55
35307;BME280;21420;52.196;21.416;2024-01-10T00:08:02;102030.22;;;-9.28;61.46
35307;BME280;21420;52.196;21.416;2024-01-10T00:10:29;102031.20;;;-9.37;61.48
35307;BME280;21420;52.196;21.416;2024-01-10T00:12:56;102034.27;;;-9.48;61.34
35307;BME280;21420;52.196;21.416;2024-01-10T00:15:22;102031.58;;;-9.55;61.34
35307;BME280;21420;52.196;21.416;2024-01-10T00:17:49;102033.78;;;-9.58;61.31
35307;BME280;21420;52.196;21.416;2024-01-10T00:20:16;102035.41;;;-9.58;61.27
35307;BME280;21420;52.196;21.416;2024-01-10T00:22:42;102040.00;;;-9.56;61.33
35307;BME280;21420;52.196;21.416;2024-01-10T00:25:09;102043.09;;;-9.54;61.44
35307;BME280;21420;52.196;21.416;2024-01-10T00:27:36;102038.45;;;-9.48;61.47
35307;BME280;21420;52.196;21.416;2024-01-10T00:30:03;102037.89;;;-9.44;61.63
35307;BME280;21420;52.196;21.416;2024-01-10T00:32:30;102032.81;;;-9.39;61.58
35307;BME280;21420;52.196;21.416;2024-01-10T00:34:59;102027.92;;;-9.37;61.58
35307;BME280;21420;52.196;21.416;2024-01-10T00:37:27;102033.66;;;-9.37;61.61
35307;BME280;21420;52.196;21.416;2024-01-10T00:39:53;102030.06;;;-9.34;61.59
35307;BME280;21420;52.196;21.416;2024-01-10T00:42:20;102035.05;;;-9.33;61.76
35307;BME280;21420;52.196;21.416;2024-01-10T00:44:47;102036.05;;;-9.33;61.76
35307;BME280;21420;52.196;21.416;2024-01-10T00:47:13;102034.59;;;-9.34;61.72
35307;BME280;21420;52.196;21.416;2024-01-10T00:49:40;102031.17;;;-9.38;61.73
35307;BME280;21420;52.196;21.416;2024-01-10T00:52:07;102023.54;;;-9.43;61.73
35307;BME280;21420;52.196;21.416;2024-01-10T00:54:33;102022.69;;;-9.47;61.70
35307;BME280;21420;52.196;21.416;2024-01-10T00:57:00;102013.70;;;-9.52;61.59
35307;BME280;21420;52.196;21.416;2024-01-10T00:59:27;102012.96;;;-9.57;61.60
35307;BME280;21420;52.196;21.416;2024-01-10T01:01:53;102009.81;;;-9.57;61.68
35307;BME280;21420;52.196;21.416;2024-01-10T01:04:20;102012.83;;;-9.55;61.77
35307;BME280;21420;52.196;21.416;2024-01-10T01:06:47;102011.86;;;-9.53;61.73
35307;BME280;21420;52.196;21.416;2024-01-10T01:09:14;102014.17;;;-9.48;61.81
35307;BME280;21420;52.196;21.416;2024-01-10T01:11:42;102016.27;;;-9.43;61.82
35307;BME280;21420;52.196;21.416;2024-01-10T01:14:08;102013.32;;;-9.37;61.91
35307;BME280;21420;52.196;21.416;2024-01-10T01:16:35;102004.71;;;-9.31;62.02
35307;BME280;21420;52.196;21.416;2024-01-10T01:19:02;102003.25;;;-9.29;61.94
35307;BME280;21420;52.196;21.416;2024-01-10T01:21:29;102002.30;;;-9.30;61.86
35307;BME280;21420;52.196;21.416;2024-01-10T01:23:55;102004.97;;;-9.28;61.97
35307;BME280;21420;52.196;21.416;2024-01-10T01:26:22;102003.08;;;-9.30;61.96
35307;BME280;21420;52.196;21.416;2024-01-10T01:28:49;102005.48;;;-9.35;62.01
35307;BME280;21420;52.196;21.416;2024-01-10T01:31:16;102003.21;;;-9.38;62.00
35307;BME280;21420;52.196;21.416;2024-01-10T01:33:42;102005.02;;;-9.40;62.07
35307;BME280;21420;52.196;21.416;2024-01-10T01:36:09;102001.47;;;-9.44;62.08
35307;BME280;21420;52.196;21.416;2024-01-10T01:38:37;101999.55;;;-9.47;62.12
35307;BME280;21420;52.196;21.416;2024-01-10T01:41:04;101999.02;;;-9.50;62.00
35307;BME280;21420;52.196;21.416;2024-01-10T01:43:32;101999.63;;;-9.54;61.94
35307;BME280;21420;52.196;21.416;2024-01-10T01:45:59;101993.48;;;-9.55;61.95
35307;BME280;21420;52.196;21.416;2024-01-10T01:48:26;101987.91;;;-9.52;61.91
35307;BME280;21420;52.196;21.416;2024-01-10T01:50:57;101981.59;;;-9.52;61.89
35307;BME280;21420;52.196;21.416;2024-01-10T01:53:25;101977.47;;;-9.52;61.94
35307;BME280;21420;52.196;21.416;2024-01-10T01:55:53;101975.45;;;-9.50;61.99
35307;BME280;21420;52.196;21.416;2024-01-10T01:58:21;101976.64;;;-9.50;62.03
35307;BME280;21420;52.196;21.416;2024-01-10T02:00:49;101976.54;;;-9.47;61.95
35307;BME280;21420;52.196;21.416;2024-01-10T02:03:16;101976.14;;;-9.43;62.15
35307;BME280;21420;52.196;21.416;2024-01-10T02:05:43;101971.88;;;-9.41;62.08
35307;BME280;21420;52.196;21.416;2024-01-10T02:08:10;101976.98;;;-9.38;62.30
35307;BME280;21420;52.196;21.416;2024-01-10T02:10:36;101975.05;;;-9.38;62.22
35307;BME280;21420;52.196;21.416;2024-01-10T02:13:05;101976.55;;;-9.38;62.23
35307;BME280;21420;52.196;21.416;2024-01-10T02:15:32;101975.42;;;-9.43;62.29
35307;BME280;21420;52.196;21.416;2024-01-10T02:17:58;101973.45;;;-9.51;62.11
35307;BME280;21420;52.196;21.416;2024-01-10T02:20:25;101979.81;;;-9.57;62.12
35307;BME280;21420;52.196;21.416;2024-01-10T02:22:52;101976.25;;;-9.64;62.16
35307;BME280;21420;52.196;21.416;2024-01-10T02:25:19;101978.73;;;-9.68;62.03
35307;BME280;21420;52.196;21.416;2024-01-10T02:27:46;101975.65;;;-9.70;62.15
35307;BME280;21420;52.196;21.416;2024-01-10T02:30:12;101967.35;;;-9.72;62.06
35307;BME280;21420;52.196;21.416;2024-01-10T02:32:40;101965.64;;;-9.71;62.19
35307;BME280;21420;52.196;21.416;2024-01-10T02:35:07;101963.98;;;-9.68;62.24
35307;BME280;21420;52.196;21.416;2024-01-10T02:37:34;101961.21;;;-9.65;62.19
35307;BME280;21420;52.196;21.416;2024-01-10T02:40:02;101957.84;;;-9.64;62.16
35307;BME280;21420;52.196;21.416;2024-01-10T02:42:29;101951.15;;;-9.62;62.24
35307;BME280;21420;52.196;21.416;2024-01-10T02:44:56;101953.81;;;-9.59;62.38
35307;BME280;21420;52.196;21.416;2024-01-10T02:47:23;101950.10;;;-9.56;62.27
35307;BME280;21420;52.196;21.416;2024-01-10T02:49:50;101945.64;;;-9.52;62.41
35307;BME280;21420;52.196;21.416;2024-01-10T02:52:17;101943.51;;;-9.49;62.29
35307;BME280;21420;52.196;21.416;2024-01-10T02:54:46;101937.09;;;-9.48;62.49
35307;BME280;21420;52.196;21.416;2024-01-10T02:57:13;101935.23;;;-9.51;62.47
35307;BME280;21420;52.196;21.416;2024-01-10T02:59:40;101932.54;;;-9.52;62.56
35307;BME280;21420;52.196;21.416;2024-01-10T03:02:07;101929.52;;;-9.55;62.60
35307;BME280;21420;52.196;21.416;2024-01-10T03:04:35;101928.39;;;-9.58;62.61
35307;BME280;21420;52.196;21.416;2024-01-10T03:07:01;101922.94;;;-9.63;62.63
35307;BME280;21420;52.196;21.416;2024-01-10T03:09:28;101918.51;;;-9.66;62.55
35307;BME280;21420;52.196;21.416;2024-01-10T03:11:55;101916.61;;;-9.69;62.42
35307;BME280;21420;52.196;21.416;2024-01-10T03:14:21;101918.57;;;-9.67;62.62
35307;BME280;21420;52.196;21.416;2024-01-10T03:16:54;101918.94;;;-9.64;62.65
35307;BME280;21420;52.196;21.416;2024-01-10T03:19:21;101919.93;;;-9.61;62.68
35307;BME280;21420;52.196;21.416;2024-01-10T03:21:48;101918.21;;;-9.55;62.75
35307;BME280;21420;52.196;21.416;2024-01-10T03:24:14;101912.64;;;-9.48;62.87
35307;BME280;21420;52.196;21.416;2024-01-10T03:26:42;101915.92;;;-9.42;62.82
35307;BME280;21420;52.196;21.416;2024-01-10T03:29:09;101913.03;;;-9.37;62.89
35307;BME280;21420;52.196;21.416;2024-01-10T03:31:35;101914.36;;;-9.31;62.96
35307;BME280;21420;52.196;21.416;2024-01-10T03:34:03;101913.65;;;-9.28;62.98
35307;BME280;21420;52.196;21.416;2024-01-10T03:36:30;101911.40;;;-9.27;62.99
35307;BME280;21420;52.196;21.416;2024-01-10T03:38:57;101915.73;;;-9.26;62.93
35307;BME280;21420;52.196;21.416;2024-01-10T03:41:23;101914.25;;;-9.29;63.03
35307;BME280;21420;52.196;21.416;2024-01-10T03:43:50;101915.84;;;-9.29;62.99
35307;BME280;21420;52.196;21.416;2024-01-10T03:46:17;101914.63;;;-9.32;62.99
35307;BME280;21420;52.196;21.416;2024-01-10T03:48:44;101910.84;;;-9.35;63.15
35307;BME280;21420;52.196;21.416;2024-01-10T03:51:18;101909.58;;;-9.39;63.03
35307;BME280;21420;52.196;21.416;2024-01-10T03:53:45;101903.82;;;-9.45;63.04
35307;BME280;21420;52.196;21.416;2024-01-10T03:56:12;101898.77;;;-9.49;62.88
35307;BME280;21420;52.196;21.416;2024-01-10T03:58:39;101897.16;;;-9.50;62.83
35307;BME280;21420;52.196;21.416;2024-01-10T04:01:09;101897.66;;;-9.52;62.86
35307;BME280;21420;52.196;21.416;2024-01-10T04:03:36;101897.13;;;-9.50;62.95
35307;BME280;21420;52.196;21.416;2024-01-10T04:06:03;101894.83;;;-9.48;62.81
35307;BME280;21420;52.196;21.416;2024-01-10T04:08:30;101889.39;;;-9.49;62.80
35307;BME280;21420;52.196;21.416;2024-01-10T04:10:58;101892.05;;;-9.49;62.82
35307;BME280;21420;52.196;21.416;2024-01-10T04:13:25;101888.40;;;-9.48;62.72
35307;BME280;21420;52.196;21.416;2024-01-10T04:15:52;101885.69;;;-9.47;63.00
35307;BME280;21420;52.196;21.416;2024-01-10T04:18:19;101884.73;;;-9.48;62.88
35307;BME280;21420;52.196;21.416;2024-01-10T04:20:47;101880.18;;;-9.47;63.04
35307;BME280;21420;52.196;21.416;2024-01-10T04:23:14;101877.41;;;-9.46;63.13
35307;BME280;21420;52.196;21.416;2024-01-10T04:25:41;101873.67;;;-9.51;63.10
35307;BME280;21420;52.196;21.416;2024-01-10T04:28:08;101871.16;;;-9.58;63.07
35307;BME280;21420;52.196;21.416;2024-01-10T04:30:34;101869.59;;;-9.62;63.01
35307;BME280;21420;52.196;21.416;2024-01-10T04:33:01;101867.75;;;-9.66;63.00
35307;BME280;21420;52.196;21.416;2024-01-10T04:35:28;101861.31;;;-9.70;62.97
35307;BME280;21420;52.196;21.416;2024-01-10T04:37:55;101865.98;;;-9.71;62.82
35307;BME280;21420;52.196;21.416;2024-01-10T04:40:22;101867.45;;;-9.70;62.92
35307;BME280;21420;52.196;21.416;2024-01-10T04:42:48;101859.56;;;-9.67;62.90
35307;BME280;21420;52.196;21.416;2024-01-10T04:45:15;101862.77;;;-9.62;63.05
35307;BME280;21420;52.196;21.416;2024-01-10T04:47:42;101867.15;;;-9.59;63.01
35307;BME280;21420;52.196;21.416;2024-01-10T04:50:11;101873.23;;;-9.56;63.08
35307;BME280;21420;52.196;21.416;2024-01-10T04:52:40;101880.19;;;-9.54;63.09
35307;BME280;21420;52.196;21.416;2024-01-10T04:55:07;101881.04;;;-9.50;63.29
35307;BME280;21420;52.196;21.416;2024-01-10T04:57:35;101879.94;;;-9.47;63.18
35307;BME280;21420;52.196;21.416;2024-01-10T05:00:03;101880.90;;;-9.44;63.20
35307;BME280;21420;52.196;21.416;2024-01-10T05:02:31;101880.34;;;-9.44;63.19
35307;BME280;21420;52.196;21.416;2024-01-10T05:04:58;101879.44;;;-9.47;63.24
35307;BME280;21420;52.196;21.416;2024-01-10T05:07:25;101878.69;;;-9.49;63.18
35307;BME280;21420;52.196;21.416;2024-01-10T05:09:52;101875.66;;;-9.56;63.08
35307;BME280;21420;52.196;21.416;2024-01-10T05:12:19;101873.58;;;-9.61;63.10
35307;BME280;21420;52.196;21.416;2024-01-10T05:14:45;101877.01;;;-9.68;63.09
35307;BME280;21420;52.196;21.416;2024-01-10T05:17:12;101885.48;;;-9.75;63.17
35307;BME280;21420;52.196;21.416;2024-01-10T05:19:39;101884.05;;;-9.78;63.19
35307;BME280;21420;52.196;21.416;2024-01-10T05:22:06;101887.23;;;-9.79;63.21
35307;BME280;21420;52.196;21.416;2024-01-10T05:24:33;101885.52;;;-9.78;63.20
35307;BME280;21420;52.196;21.416;2024-01-10T05:27:00;101885.38;;;-9.72;63.28
35307;BME280;21420;52.196;21.416;2024-01-10T05:29:26;101889.09;;;-9.67;63.31
35307;BME280;21420;52.196;21.416;2024-01-10T05:31:54;101889.42;;;-9.69;63.32
35307;BME280;21420;52.196;21.416;2024-01-10T05:34:21;101889.53;;;-9.68;63.21
35307;BME280;21420;52.196;21.416;2024-01-10T05:36:48;101890.73;;;-9.68;63.26
35307;BME280;21420;52.196;21.416;2024-01-10T05:39:16;101888.83;;;-9.61;63.32
35307;BME280;21420;52.196;21.416;2024-01-10T05:41:43;101888.73;;;-9.57;63.35
35307;BME280;21420;52.196;21.416;2024-01-10T05:44:12;101890.05;;;-9.55;63.49
35307;BME280;21420;52.196;21.416;2024-01-10T05:46:40;101890.52;;;-9.53;63.52
35307;BME280;21420;52.196;21.416;2024-01-10T05:49:08;101890.48;;;-9.52;63.53
35307;BME280;21420;52.196;21.416;2024-01-10T05:51:35;101886.42;;;-9.52;63.54
35307;BME280;21420;52.196;21.416;2024-01-10T05:54:04;101880.93;;;-9.51;63.73
35307;BME280;21420;52.196;21.416;2024-01-10T05:56:31;101875.23;;;-9.55;63.57
35307;BME280;21420;52.196;21.416;2024-01-10T05:58:58;101870.95;;;-9.65;63.44
35307;BME280;21420;52.196;21.416;2024-01-10T06:01:24;101869.27;;;-9.72;63.41
35307;BME280;21420;52.196;21.416;2024-01-10T06:03:51;101866.27;;;-9.79;63.28
35307;BME280;21420;52.196;21.416;2024-01-10T06:06:18;101860.35;;;-9.81;63.14
35307;BME280;21420;52.196;21.416;2024-01-10T06:08:45;101854.42;;;-9.80;63.36
35307;BME280;21420;52.196;21.416;2024-01-10T06:11:12;101853.80;;;-9.79;63.33
35307;BME280;21420;52.196;21.416;2024-01-10T06:13:39;101851.28;;;-9.79;63.27
35307;BME280;21420;52.196;21.416;2024-01-10T06:16:19;101853.23;;;-9.79;63.29
35307;BME280;21420;52.196;21.416;2024-01-10T06:18:46;101855.16;;;-9.77;63.38
35307;BME280;21420;52.196;21.416;2024-01-10T06:21:14;101857.98;;;-9.74;63.52
35307;BME280;21420;52.196;21.416;2024-01-10T06:23:40;101860.10;;;-9.71;63.39
35307;BME280;21420;52.196;21.416;2024-01-10T06:26:07;101867.00;;;-9.66;63.52
35307;BME280;21420;52.196;21.416;2024-01-10T06:28:34;101875.17;;;-9.61;63.51
35307;BME280;21420;52.196;21.416;2024-01-10T06:31:00;101879.23;;;-9.56;63.64
35307;BME280;21420;52.196;21.416;2024-01-10T06:33:27;101876.80;;;-9.55;63.56
35307;BME280;21420;52.196;21.416;2024-01-10T06:35:54;101878.65;;;-9.57;63.56
35307;BME280;21420;52.196;21.416;2024-01-10T06:38:21;101879.33;;;-9.60;63.56
35307;BME280;21420;52.196;21.416;2024-01-10T06:40:49;101883.73;;;-9.65;63.57
35307;BME280;21420;52.196;21.416;2024-01-10T06:43:17;101884.13;;;-9.72;63.43
35307;BME280;21420;52.196;21.416;2024-01-10T06:45:44;101881.27;;;-9.73;63.59
35307;BME280;21420;52.196;21.416;2024-01-10T06:48:12;101880.91;;;-9.70;63.69
35307;BME280;21420;52.196;21.416;2024-01-10T06:50:39;101879.08;;;-9.74;63.60
35307;BME280;21420;52.196;21.416;2024-01-10T06:53:06;101880.64;;;-9.77;63.61
35307;BME280;21420;52.196;21.416;2024-01-10T06:55:34;101880.95;;;-9.77;63.50
35307;BME280;21420;52.196;21.416;2024-01-10T06:58:01;101883.34;;;-9.76;63.55
35307;BME280;21420;52.196;21.416;2024-01-10T07:00:29;101886.17;;;-9.72;63.51
35307;BME280;21420;52.196;21.416;2024-01-10T07:02:57;101889.60;;;-9.60;63.75
35307;BME280;21420;52.196;21.416;2024-01-10T07:05:23;101891.29;;;-9.50;63.82
35307;BME280;21420;52.196;21.416;2024-01-10T07:07:50;101893.16;;;-9.31;63.92
35307;BME280;21420;52.196;21.416;2024-01-10T07:10:17;101892.58;;;-8.92;64.51
35307;BME280;21420;52.196;21.416;2024-01-10T07:12:44;101888.60;;;-8.55;64.52
35307;BME280;21420;52.196;21.416;2024-01-10T07:15:12;101884.66;;;-8.25;64.71
35307;BME280;21420;52.196;21.416;2024-01-10T07:17:39;101890.66;;;-8.00;64.66
35307;BME280;21420;52.196;21.416;2024-01-10T07:20:07;101890.66;;;-7.71;64.84
35307;BME280;21420;52.196;21.416;2024-01-10T07:22:35;101886.27;;;-7.44;64.80
35307;BME280;21420;52.196;21.416;2024-01-10T07:25:02;101888.73;;;-7.24;64.78
35307;BME280;21420;52.196;21.416;2024-01-10T07:27:30;101896.54;;;-7.03;64.79
35307;BME280;21420;52.196;21.416;2024-01-10T07:29:57;101897.83;;;-6.69;64.98
35307;BME280;21420;52.196;21.416;2024-01-10T07:32:24;101895.39;;;-6.42;65.00
35307;BME280;21420;52.196;21.416;2024-01-10T07:34:52;101890.72;;;-6.05;65.17
35307;BME280;21420;52.196;21.416;2024-01-10T07:37:19;101888.36;;;-5.72;65.27
35307;BME280;21420;52.196;21.416;2024-01-10T07:39:49;101883.06;;;-5.42;65.19
35307;BME280;21420;52.196;21.416;2024-01-10T07:42:17;101876.07;;;-5.12;65.19
35307;BME280;21420;52.196;21.416;2024-01-10T07:44:44;101872.39;;;-4.72;65.31
35307;BME280;21420;52.196;21.416;2024-01-10T07:47:14;101874.23;;;-4.22;65.59
35307;BME280;21420;52.196;21.416;2024-01-10T07:49:41;101875.33;;;-3.74;65.84
35307;BME280;21420;52.196;21.416;2024-01-10T07:52:08;101881.29;;;-3.31;65.61
35307;BME280;21420;52.196;21.416;2024-01-10T07:54:35;101884.04;;;-2.92;65.60
35307;BME280;21420;52.196;21.416;2024-01-10T07:57:01;101884.86;;;-2.47;65.69
35307;BME280;21420;52.196;21.416;2024-01-10T07:59:28;101885.17;;;-2.16;65.34
35307;BME280;21420;52.196;21.416;2024-01-10T08:01:56;101881.14;;;-1.89;65.16
35307;BME280;21420;52.196;21.416;2024-01-10T08:04:26;101880.94;;;-1.70;64.95
35307;BME280;21420;52.196;21.416;2024-01-10T08:06:53;101880.50;;;-1.51;64.74
35307;BME280;21420;52.196;21.416;2024-01-10T08:09:22;101876.41;;;-1.26;64.89
35307;BME280;21420;52.196;21.416;2024-01-10T08:11:50;101874.18;;;-1.00;64.62
35307;BME280;21420;52.196;21.416;2024-01-10T08:14:17;101869.85;;;-0.93;64.14
35307;BME280;21420;52.196;21.416;2024-01-10T08:16:44;101871.14;;;-0.88;63.97
35307;BME280;21420;52.196;21.416;2024-01-10T08:19:14;101868.97;;;-0.92;63.63
35307;BME280;21420;52.196;21.416;2024-01-10T08:21:41;101866.88;;;-0.82;63.48
35307;BME280;21420;52.196;21.416;2024-01-10T08:24:08;101866.66;;;-0.73;63.58
35307;BME280;21420;52.196;21.416;2024-01-10T08:26:35;101866.21;;;-0.63;63.62
35307;BME280;21420;52.196;21.416;2024-01-10T08:29:02;101868.98;;;-0.64;63.27
35307;BME280;21420;52.196;21.416;2024-01-10T08:31:29;101866.27;;;-0.79;62.90
35307;BME280;21420;52.196;21.416;2024-01-10T08:33:56;101865.89;;;-0.78;62.93
35307;BME280;21420;52.196;21.416;2024-01-10T08:36:23;101872.80;;;-0.56;63.16
35307;BME280;21420;52.196;21.416;2024-01-10T08:38:50;101869.65;;;-0.38;63.13
35307;BME280;21420;52.196;21.416;2024-01-10T08:41:18;101870.71;;;-0.18;63.16
35307;BME280;21420;52.196;21.416;2024-01-10T08:43:46;101873.06;;;-0.02;63.00
35307;BME280;21420;52.196;21.416;2024-01-10T08:46:13;101871.77;;;0.23;63.12
35307;BME280;21420;52.196;21.416;2024-01-10T08:48:41;101876.48;;;0.49;63.24
35307;BME280;21420;52.196;21.416;2024-01-10T08:51:09;101875.86;;;0.80;63.31
35307;BME280;21420;52.196;21.416;2024-01-10T08:53:36;101878.52;;;0.96;63.14
35307;BME280;21420;52.196;21.416;2024-01-10T08:56:04;101882.77;;;1.20;63.33
35307;BME280;21420;52.196;21.416;2024-01-10T08:58:30;101888.04;;;1.42;63.27
35307;BME280;21420;52.196;21.416;2024-01-10T09:00:57;101896.27;;;1.75;63.30
35307;BME280;21420;52.196;21.416;2024-01-10T09:03:24;101902.45;;;2.22;63.62
35307;BME280;21420;52.196;21.416;2024-01-10T09:05:51;101903.00;;;2.67;63.77
35307;BME280;21420;52.196;21.416;2024-01-10T09:08:36;101902.40;;;3.09;63.53
35307;BME280;21420;52.196;21.416;2024-01-10T09:11:03;101903.57;;;3.43;63.54
35307;BME280;21420;52.196;21.416;2024-01-10T09:13:30;101902.55;;;3.75;63.45
35307;BME280;21420;52.196;21.416;2024-01-10T09:15:57;101892.05;;;4.00;63.18
35307;BME280;21420;52.196;21.416;2024-01-10T09:18:24;101885.61;;;4.01;62.65
35307;BME280;21420;52.196;21.416;2024-01-10T09:20:51;101879.80;;;3.89;62.26
35307;BME280;21420;52.196;21.416;2024-01-10T09:23:19;101872.44;;;3.67;62.06
35307;BME280;21420;52.196;21.416;2024-01-10T09:25:45;101874.80;;;3.00;61.52
35307;BME280;21420;52.196;21.416;2024-01-10T09:28:12;101870.23;;;2.05;61.17
35307;BME280;21420;52.196;21.416;2024-01-10T09:30:39;101874.55;;;1.33;61.13
35307;BME280;21420;52.196;21.416;2024-01-10T09:33:08;101877.72;;;0.72;61.25
35307;BME280;21420;52.196;21.416;2024-01-10T09:35:35;101879.52;;;0.14;61.10
35307;BME280;21420;52.196;21.416;2024-01-10T09:38:02;101874.32;;;-0.37;61.22
35307;BME280;21420;52.196;21.416;2024-01-10T09:40:29;101878.55;;;-0.78;61.28
35307;BME280;21420;52.196;21.416;2024-01-10T09:42:57;101876.47;;;-1.24;61.19
35307;BME280;21420;52.196;21.416;2024-01-10T09:45:25;101882.62;;;-1.82;60.80
35307;BME280;21420;52.196;21.416;2024-01-10T09:47:55;101879.33;;;-2.28;61.12
35307;BME280;21420;52.196;21.416;2024-01-10T09:50:25;101880.96;;;-2.43;61.63
35307;BME280;21420;52.196;21.416;2024-01-10T09:52:54;101883.08;;;-2.57;61.71
35307;BME280;21420;52.196;21.416;2024-01-10T09:55:26;101883.88;;;-2.76;61.69
35307;BME280;21420;52.196;21.416;2024-01-10T09:57:55;101881.48;;;-2.88;61.82
35307;BME280;21420;52.196;21.416;2024-01-10T10:00:22;101882.85;;;-2.95;61.95
35307;BME280;21420;52.196;21.416;2024-01-10T10:02:53;101881.59;;;-3.04;61.85
35307;BME280;21420;52.196;21.416;2024-01-10T10:05:21;101875.88;;;-3.20;61.80
35307;BME280;21420;52.196;21.416;2024-01-10T10:07:51;101877.74;;;-3.23;62.11
35307;BME280;21420;52.196;21.416;2024-01-10T10:10:19;101878.04;;;-3.29;62.18
35307;BME280;21420;52.196;21.416;2024-01-10T10:12:49;101873.55;;;-3.38;62.09
35307;BME280;21420;52.196;21.416;2024-01-10T10:15:17;101875.52;;;-3.41;62.27
35307;BME280;21420;52.196;21.416;2024-01-10T10:17:46;101872.77;;;-3.47;62.12
35307;BME280;21420;52.196;21.416;2024-01-10T10:20:26;101861.50;;;-3.60;62.12
35307;BME280;21420;52.196;21.416;2024-01-10T10:25:34;101861.92;;;-3.62;62.43
35307;BME280;21420;52.196;21.416;2024-01-10T10:28:03;101862.98;;;-3.54;62.66
35307;BME280;21420;52.196;21.416;2024-01-10T10:30:32;101864.71;;;-3.48;62.69
35307;BME280;21420;52.196;21.416;2024-01-10T10:33:01;101862.40;;;-3.42;62.74
35307;BME280;21420;52.196;21.416;2024-01-10T10:35:29;101853.02;;;-3.37;62.65
35307;BME280;21420;52.196;21.416;2024-01-10T10:38:07;101848.64;;;-3.31;62.71
35307;BME280;21420;52.196;21.416;2024-01-10T10:40:36;101844.85;;;-3.09;63.00
35307;BME280;21420;52.196;21.416;2024-01-10T10:43:04;101837.89;;;-2.45;63.54
35307;BME280;21420;52.196;21.416;2024-01-10T10:45:32;101830.33;;;-1.41;64.14
35307;BME280;21420;52.196;21.416;2024-01-10T10:48:01;101821.39;;;-0.36;64.55
35307;BME280;21420;52.196;21.416;2024-01-10T10:50:33;101829.08;;;0.47;64.25
35307;BME280;21420;52.196;21.416;2024-01-10T10:53:03;101828.17;;;0.87;63.55
35307;BME280;21420;52.196;21.416;2024-01-10T10:55:31;101821.35;;;1.27;63.50
35307;BME280;21420;52.196;21.416;2024-01-10T10:58:02;101816.95;;;1.78;63.47
35307;BME280;21420;52.196;21.416;2024-01-10T11:00:38;101815.23;;;2.02;63.00
35307;BME280;21420;52.196;21.416;2024-01-10T11:03:09;101811.77;;;2.28;63.00
35307;BME280;21420;52.196;21.416;2024-01-10T11:05:40;101805.77;;;2.58;62.92
35307;BME280;21420;52.196;21.416;2024-01-10T11:08:15;101802.18;;;2.83;62.78
35307;BME280;21420;52.196;21.416;2024-01-10T11:10:44;101799.38;;;3.04;62.77
35307;BME280;21420;52.196;21.416;2024-01-10T11:13:32;101803.02;;;3.36;62.87
35307;BME280;21420;52.196;21.416;2024-01-10T11:24:23;101801.22;;;4.21;62.43
35307;BME280;21420;52.196;21.416;2024-01-10T11:27:06;101795.20;;;4.21;62.12
35307;BME280;21420;52.196;21.416;2024-01-10T11:29:37;101789.85;;;4.11;61.71
35307;BME280;21420;52.196;21.416;2024-01-10T11:32:12;101790.38;;;4.03;61.47
35307;BME280;21420;52.196;21.416;2024-01-10T11:35:03;101785.30;;;3.88;61.26
35307;BME280;21420;52.196;21.416;2024-01-10T11:37:44;101782.64;;;3.82;61.44
35307;BME280;21420;52.196;21.416;2024-01-10T11:40:12;101778.98;;;3.79;61.41
35307;BME280;21420;52.196;21.416;2024-01-10T11:42:43;101773.96;;;3.79;61.43
35307;BME280;21420;52.196;21.416;2024-01-10T11:48:03;101773.65;;;3.81;61.48
35307;BME280;21420;52.196;21.416;2024-01-10T11:50:30;101768.52;;;3.83;61.40
35307;BME280;21420;52.196;21.416;2024-01-10T11:52:58;101767.52;;;3.75;61.18
35307;BME280;21420;52.196;21.416;2024-01-10T11:55:47;101769.21;;;3.76;61.32
35307;BME280;21420;52.196;21.416;2024-01-10T11:58:16;101765.30;;;3.71;61.22
35307;BME280;21420;52.196;21.416;2024-01-10T12:00:46;101757.39;;;3.59;61.03
35307;BME280;21420;52.196;21.416;2024-01-10T12:03:13;101755.91;;;3.57;61.16
35307;BME280;21420;52.196;21.416;2024-01-10T12:05:40;101752.59;;;3.61;61.41
35307;BME280;21420;52.196;21.416;2024-01-10T12:08:08;101752.05;;;3.79;61.63
35307;BME280;21420;52.196;21.416;2024-01-10T12:10:45;101753.39;;;3.82;61.48
35307;BME280;21420;52.196;21.416;2024-01-10T12:13:12;101754.48;;;3.83;61.44
35307;BME280;21420;52.196;21.416;2024-01-10T12:15:38;101755.06;;;3.88;61.49
35307;BME280;21420;52.196;21.416;2024-01-10T12:18:06;101761.84;;;3.94;61.43
35307;BME280;21420;52.196;21.416;2024-01-10T12:20:32;101759.20;;;3.83;60.99
35307;BME280;21420;52.196;21.416;2024-01-10T12:22:59;101758.95;;;3.63;60.90
35307;BME280;21420;52.196;21.416;2024-01-10T12:25:27;101756.91;;;3.54;60.85
35307;BME280;21420;52.196;21.416;2024-01-10T12:27:53;101759.44;;;3.47;61.02
35307;BME280;21420;52.196;21.416;2024-01-10T12:30:20;101755.95;;;3.51;61.14
35307;BME280;21420;52.196;21.416;2024-01-10T12:32:50;101756.50;;;3.52;61.21
35307;BME280;21420;52.196;21.416;2024-01-10T12:35:18;101753.96;;;3.63;61.38
35307;BME280;21420;52.196;21.416;2024-01-10T12:38:24;101754.02;;;3.80;61.60
35307;BME280;21420;52.196;21.416;2024-01-10T12:40:52;101738.05;;;3.64;60.93
35307;BME280;21420;52.196;21.416;2024-01-10T12:43:19;101723.94;;;3.39;60.62
35307;BME280;21420;52.196;21.416;2024-01-10T12:45:46;101731.47;;;3.21;60.47
35307;BME280;21420;52.196;21.416;2024-01-10T12:48:13;101730.83;;;3.07;60.60
35307;BME280;21420;52.196;21.416;2024-01-10T12:50:43;101721.11;;;2.95;60.51
35307;BME280;21420;52.196;21.416;2024-01-10T12:53:10;101722.00;;;2.72;60.38
35307;BME280;21420;52.196;21.416;2024-01-10T12:55:37;101730.58;;;2.66;60.67
35307;BME280;21420;52.196;21.416;2024-01-10T12:58:07;101728.98;;;2.71;60.96
35307;BME280;21420;52.196;21.416;2024-01-10T13:00:35;101726.59;;;2.75;60.93